Palmdale Regional/USAF Plant 42 Airport
KPMD : rendu visible

Aérodrome :











RETROUVEZ-NOUS SUR...

 
LOGIN :

S'inscrire | Disclaimer

   EN    FR    IT 

 









Légende :    VFR   VFR Marginal   IFR   IFR Intensif   IFR Très Intensif
Visi : 
Plafond : 
>= 8 km
>= 3000ft
5 à 8 km
1000 à 3000 ft
1500m à 5 km
500 à 1000 ft
800 à 1500m
200 à 500 ft
< 800m
< 200 ft
Symboles :   Orages  Brouillard  Fortes neiges  Fortes précipitations  Vent > 20 kt






- Altitude de l'aérodrome : 2543 ft
- Code IATA : PMD


KPMD - Palmdale Regional/USAF Plant 42

DERNIER METAR :
  • 081253Z 30005KT 3SM RA BR BKN007 OVC022 07/05 A2993 RMK AO2 SLP132 P0004 T00670050

METARs EXPIRÉS :
  • 081213Z AUTO 31003KT 8SM -RA SCT008 OVC022 07/06 A2992 RMK AO2 P0000 T00670056
  • 081153Z AUTO 00000KT 10SM -RA OVC021 07/06 A2992 RMK AO2 SLP128 P0001 60004 70046 T00720056 10083 20067 58016
  • 081053Z AUTO 12005KT 10SM -RA OVC020 07/06 A2993 RMK AO2 SLP133 P0003 T00720056
  • 080953Z AUTO 14007KT 10SM -RA BKN024 BKN050 OVC065 07/06 A2996 RMK AO2 RAE0859B22 SLP140 P0000 T00720056

TAF KPMD
Valide du 08 à 12h jusqu'au 09 à 12h UTC


081130Z 0812/0912 14006KT P6SM -SHRA BKN020 BKN045
FM081500 20006KT P6SM -SHRA OVC010
FM082200 25014KT P6SM -SHRA OVC025
FM090500 20006KT P6SM VCSH OVC050
FM091000 VRB05KT P6SM VCSH OVC040



MET'MAP, la Météo Aéronautique d'un coup d'oeil ! - Copyright ORBIFLY Décembre 2007 - Disclaimer

ORBIFLY MET'MAP TEAM :

Programmation & Développement : Alexandra Zaïnal
Sur une idée originale de : Baudouin d'Aumeries
Assistance à la programmation : Marc-Olivier Méhu
Soutien technique & logistique : Manuel Goepfert

Contact : metmap@orbifly.com




SOURCES & CREDITS :

   NOAA       Earth
Advisory